Time;durP1;ratioP1;P1;durP2;ratioP2;P2;SDS_P1;SDS_P2;PMS_P1;PMS_P2;Temp;Humidity;BMP_temperature;BMP_pressure;BME280_temperature;BME280_humidity;BME280_pressure;Samples;Min_cycle;Max_cycle;Signal;HPM_P1;HPM_P2
2024/01/27 00:00:58;;;;;;;16.42;5.82;;;;;;;5.71;100.00;103341.47;5031979;28;20041;-67
2024/01/27 00:03:46;;;;;;;18.33;5.78;;;;;;;5.68;100.00;103334.53;5024155;28;20044;-68
2024/01/27 00:06:34;;;;;;;18.08;5.07;;;;;;;5.69;100.00;103333.50;5023922;28;20445;-68
2024/01/27 00:09:22;;;;;;;14.52;5.43;;;;;;;5.71;100.00;103336.06;5051710;28;20057;-68
2024/01/27 00:12:10;;;;;;;18.42;5.60;;;;;;;5.70;100.00;103340.63;5037121;28;20512;-68
2024/01/27 00:14:59;;;;;;;18.08;5.40;;;;;;;5.71;100.00;103336.06;5052024;28;20146;-68
2024/01/27 00:17:48;;;;;;;21.10;5.10;;;;;;;5.67;100.00;103340.09;5056280;28;20064;-68
2024/01/27 00:20:37;;;;;;;17.25;5.43;;;;;;;5.63;100.00;103345.03;5037432;28;20048;-68
2024/01/27 00:23:25;;;;;;;16.63;5.15;;;;;;;5.62;100.00;103347.91;5030864;28;20515;-68
2024/01/27 00:26:13;;;;;;;16.20;4.95;;;;;;;5.61;100.00;103340.81;5037440;28;20462;-68
2024/01/27 00:29:01;;;;;;;17.70;5.85;;;;;;;5.60;100.00;103350.78;5052052;28;20059;-68
2024/01/27 00:31:50;;;;;;;19.05;5.47;;;;;;;5.61;100.00;103354.34;5052273;28;20053;-68
2024/01/27 00:34:38;;;;;;;16.45;4.82;;;;;;;5.63;100.00;103360.41;5018437;28;20053;-68
2024/01/27 00:37:27;;;;;;;15.90;5.50;;;;;;;5.64;100.00;103356.69;5035389;28;20416;-68
2024/01/27 00:40:15;;;;;;;15.65;5.57;;;;;;;5.63;100.00;103361.25;5050068;28;20531;-68
2024/01/27 00:43:03;;;;;;;13.68;4.97;;;;;;;5.62;100.00;103364.13;5024346;28;20409;-68
2024/01/27 00:45:51;;;;;;;19.73;5.50;;;;;;;5.60;100.00;103366.16;5051212;28;20079;-68
2024/01/27 00:48:39;;;;;;;16.80;5.40;;;;;;;5.59;100.00;103359.91;5052891;28;20041;-67
2024/01/27 00:51:27;;;;;;;19.85;5.50;;;;;;;5.59;100.00;103361.78;5053269;28;20194;-68
2024/01/27 00:54:15;;;;;;;15.90;5.55;;;;;;;5.54;100.00;103357.72;5040576;28;20127;-66
2024/01/27 00:57:04;;;;;;;19.60;5.57;;;;;;;5.52;100.00;103365.16;5055166;28;20045;-67
2024/01/27 00:59:52;;;;;;;17.67;5.53;;;;;;;5.53;100.00;103369.56;5039292;28;20053;-68
2024/01/27 01:02:40;;;;;;;18.35;5.53;;;;;;;5.51;100.00;103366.19;5065430;28;20052;-68
2024/01/27 01:05:29;;;;;;;21.58;6.38;;;;;;;5.48;100.00;103363.84;5054050;28;20146;-67
2024/01/27 01:08:17;;;;;;;15.40;5.68;;;;;;;5.45;100.00;103368.72;5040201;28;20063;-67
2024/01/27 01:11:05;;;;;;;17.15;5.85;;;;;;;5.43;100.00;103363.47;5052131;28;20053;-67
2024/01/27 01:13:53;;;;;;;16.58;5.07;;;;;;;5.43;100.00;103368.88;5041276;28;20053;-67
2024/01/27 01:16:41;;;;;;;15.73;5.32;;;;;;;5.42;100.00;103364.50;5040522;28;20072;-66
2024/01/27 01:19:29;;;;;;;15.50;5.47;;;;;;;5.43;100.00;103366.19;5027584;28;20088;-67
2024/01/27 01:22:17;;;;;;;17.73;5.15;;;;;;;5.46;100.00;103370.41;5020148;28;20068;-67
2024/01/27 01:25:05;;;;;;;17.63;5.68;;;;;;;5.44;100.00;103365.19;5033038;28;20164;-67
2024/01/27 01:27:53;;;;;;;18.45;5.68;;;;;;;5.41;100.00;103368.22;5054625;28;20329;-68
2024/01/27 01:30:41;;;;;;;20.48;6.13;;;;;;;5.40;100.00;103373.81;5035197;28;20048;-68
2024/01/27 01:33:29;;;;;;;17.42;5.88;;;;;;;5.37;100.00;103361.47;5048949;28;20052;-68
2024/01/27 01:36:17;;;;;;;14.05;5.85;;;;;;;5.35;100.00;103363.50;5055060;28;20048;-68
2024/01/27 01:39:06;;;;;;;16.63;5.95;;;;;;;5.36;100.00;103364.34;5060458;28;20052;-68
2024/01/27 01:41:54;;;;;;;20.00;6.28;;;;;;;5.33;100.00;103368.22;5073229;28;20053;-67
2024/01/27 01:44:42;;;;;;;19.42;5.80;;;;;;;5.28;100.00;103379.53;5021342;28;20053;-68
2024/01/27 01:47:30;;;;;;;19.75;7.25;;;;;;;5.27;100.00;103366.22;5020130;28;20100;-67
2024/01/27 01:50:18;;;;;;;19.42;6.60;;;;;;;5.25;100.00;103374.47;5048143;28;20045;-67
2024/01/27 01:53:07;;;;;;;15.82;6.43;;;;;;;5.27;100.00;103377.03;5037557;28;20040;-68
2024/01/27 01:55:56;;;;;;;17.17;6.10;;;;;;;5.28;100.00;103373.31;5039527;28;20417;-68
2024/01/27 01:58:45;;;;;;;18.15;6.32;;;;;;;5.27;100.00;103371.63;5022023;28;20063;-68
2024/01/27 02:01:33;;;;;;;18.13;6.10;;;;;;;5.26;100.00;103369.91;5036210;28;20064;-68
2024/01/27 02:04:21;;;;;;;19.20;6.22;;;;;;;5.23;100.00;103370.25;5045784;28;20045;-67
2024/01/27 02:07:09;;;;;;;16.77;5.85;;;;;;;5.21;100.00;103378.53;5046782;28;20055;-63
2024/01/27 02:09:58;;;;;;;21.70;6.53;;;;;;;5.20;100.00;103376.00;5073061;28;20053;-58
2024/01/27 02:12:46;;;;;;;20.30;6.28;;;;;;;5.17;100.00;103365.53;5058125;28;20059;-66
2024/01/27 02:15:34;;;;;;;18.05;5.80;;;;;;;5.15;100.00;103370.25;5054591;28;20410;-67
2024/01/27 02:18:22;;;;;;;15.48;6.00;;;;;;;5.14;100.00;103369.41;5041345;28;20461;-59
2024/01/27 02:21:10;;;;;;;16.88;6.00;;;;;;;5.11;100.00;103373.28;5044860;28;20114;-59
2024/01/27 02:23:59;;;;;;;17.70;5.97;;;;;;;5.09;100.00;103378.03;5050226;28;20489;-69
2024/01/27 02:26:47;;;;;;;16.60;5.75;;;;;;;5.06;100.00;103375.66;5044794;28;20053;-65
2024/01/27 02:29:35;;;;;;;17.40;6.32;;;;;;;5.05;100.00;103382.09;5055194;28;20076;-66
2024/01/27 02:32:23;;;;;;;18.42;6.30;;;;;;;5.03;100.00;103386.81;5054004;28;20072;-68
2024/01/27 02:35:11;;;;;;;17.05;5.53;;;;;;;5.00;100.00;103383.59;5056509;28;20053;-68
2024/01/27 02:37:59;;;;;;;18.88;6.10;;;;;;;5.00;100.00;103392.53;5052919;28;20048;-68
2024/01/27 02:40:47;;;;;;;23.40;6.53;;;;;;;4.99;100.00;103392.72;5039890;28;20041;-67
2024/01/27 02:43:35;;;;;;;16.67;6.15;;;;;;;4.97;100.00;103389.34;5053094;28;20045;-68
2024/01/27 02:46:23;;;;;;;17.13;6.22;;;;;;;4.96;100.00;103401.16;5027364;28;20494;-67
2024/01/27 02:49:11;;;;;;;20.05;6.95;;;;;;;4.94;100.00;103393.22;5018694;28;20063;-66
2024/01/27 02:51:59;;;;;;;20.58;6.75;;;;;;;4.92;100.00;103389.84;5034532;28;20454;-67
2024/01/27 02:54:47;;;;;;;18.60;5.90;;;;;;;4.90;100.00;103379.19;5037131;28;20049;-67
2024/01/27 02:57:35;;;;;;;16.00;5.95;;;;;;;4.89;100.00;103379.38;5038755;28;20412;-67
2024/01/27 03:00:24;;;;;;;17.20;6.07;;;;;;;4.92;100.00;103381.72;5039192;28;20040;-68
2024/01/27 03:03:12;;;;;;;17.45;6.43;;;;;;;4.93;100.00;103386.13;5037763;28;20045;-66
2024/01/27 03:06:00;;;;;;;23.92;7.18;;;;;;;4.92;100.00;103384.44;5021595;28;20076;-68
2024/01/27 03:08:48;;;;;;;19.13;6.40;;;;;;;4.91;100.00;103390.84;5053104;28;20402;-69
2024/01/27 03:11:36;;;;;;;20.48;6.85;;;;;;;4.88;100.00;103388.47;5036299;28;20044;-66
2024/01/27 03:14:25;;;;;;;18.67;6.32;;;;;;;4.87;100.00;103382.22;5038707;28;20057;-67
2024/01/27 03:17:13;;;;;;;19.30;6.90;;;;;;;4.87;100.00;103384.94;5051837;28;20041;-68
2024/01/27 03:20:01;;;;;;;22.30;7.47;;;;;;;4.86;100.00;103382.41;5025517;28;20053;-68
2024/01/27 03:22:49;;;;;;;18.83;7.10;;;;;;;4.83;100.00;103380.03;5036151;28;20045;-69
2024/01/27 03:25:37;;;;;;;18.60;6.40;;;;;;;4.80;100.00;103380.38;5032777;28;20055;-67
2024/01/27 03:28:25;;;;;;;20.75;6.78;;;;;;;4.78;100.00;103380.53;5032903;28;20065;-68
2024/01/27 03:31:13;;;;;;;13.23;5.97;;;;;;;4.79;100.00;103384.09;5020834;28;20520;-68
2024/01/27 03:34:02;;;;;;;18.55;6.72;;;;;;;4.78;100.00;103382.38;5032086;28;20184;-66
2024/01/27 03:36:50;;;;;;;15.63;6.82;;;;;;;4.77;100.00;103383.41;5044499;28;20061;-67
2024/01/27 03:39:40;;;;;;;19.02;6.70;;;;;;;4.77;100.00;103380.72;5038037;28;20045;-67
2024/01/27 03:42:28;;;;;;;22.40;7.32;;;;;;;4.73;100.00;103384.75;5036234;28;20052;-68
2024/01/27 03:45:16;;;;;;;18.67;6.75;;;;;;;4.68;100.00;103377.13;5053997;28;20055;-67
2024/01/27 03:48:05;;;;;;;17.42;6.75;;;;;;;4.68;100.00;103380.66;5025786;28;20056;-67
2024/01/27 03:50:53;;;;;;;22.55;7.68;;;;;;;4.66;100.00;103380.00;5035032;28;20041;-68
2024/01/27 03:53:41;;;;;;;18.33;6.60;;;;;;;4.67;100.00;103388.97;5052561;28;20057;-68
2024/01/27 03:56:29;;;;;;;18.13;5.97;;;;;;;4.68;100.00;103388.78;5037831;28;20115;-67
2024/01/27 03:59:17;;;;;;;20.15;6.82;;;;;;;4.72;100.00;103393.88;5037234;28;20048;-68
2024/01/27 04:02:05;;;;;;;16.65;6.47;;;;;;;4.69;100.00;103395.88;5037797;28;20485;-68
2024/01/27 04:04:53;;;;;;;22.70;7.10;;;;;;;4.66;100.00;103404.28;5024410;28;20048;-68
2024/01/27 04:07:41;;;;;;;16.38;6.55;;;;;;;4.64;100.00;103400.94;5035612;28;20408;-68
2024/01/27 04:10:29;;;;;;;17.88;6.13;;;;;;;4.61;100.00;103409.34;5052237;28;20048;-66
2024/01/27 04:13:17;;;;;;;19.27;6.45;;;;;;;4.60;100.00;103407.66;5024918;28;20698;-66
2024/01/27 04:16:05;;;;;;;20.02;6.85;;;;;;;4.58;100.00;103401.59;5052660;28;20127;-69
2024/01/27 04:18:54;;;;;;;17.23;7.00;;;;;;;4.60;100.00;103406.81;5034423;28;20406;-68
2024/01/27 04:21:42;;;;;;;18.55;6.95;;;;;;;4.58;100.00;103403.44;5052276;28;20045;-66
2024/01/27 04:24:30;;;;;;;16.45;6.43;;;;;;;4.57;100.00;103401.72;5051835;28;20127;-67
2024/01/27 04:27:18;;;;;;;22.33;7.40;;;;;;;4.58;100.00;103396.19;5043512;28;20045;-67
2024/01/27 04:30:08;;;;;;;18.00;6.45;;;;;;;4.61;100.00;103400.41;5027185;28;20429;-69
2024/01/27 04:32:56;;;;;;;16.30;5.82;;;;;;;4.64;100.00;103409.03;5042233;28;20405;-67
2024/01/27 04:35:44;;;;;;;16.90;6.57;;;;;;;4.63;100.00;103407.31;5039728;28;20052;-67
2024/01/27 04:38:32;;;;;;;16.98;6.88;;;;;;;4.61;100.00;103392.31;5042831;28;20045;-67
2024/01/27 04:41:20;;;;;;;15.38;6.40;;;;;;;4.61;100.00;103403.94;5047822;28;20500;-67
2024/01/27 04:44:08;;;;;;;14.20;5.65;;;;;;;4.55;100.00;103401.09;5055977;28;20037;-68
2024/01/27 04:46:56;;;;;;;17.50;6.90;;;;;;;4.51;100.00;103407.81;5041009;28;20081;-66
2024/01/27 04:49:44;;;;;;;18.95;6.32;;;;;;;4.52;100.00;103414.88;5021548;28;20053;-67
2024/01/27 04:52:32;;;;;;;20.20;7.13;;;;;;;4.47;100.00;103396.47;5041032;28;20175;-67
2024/01/27 04:55:20;;;;;;;17.45;6.72;;;;;;;4.49;100.00;103399.84;5041053;28;20132;-68
2024/01/27 04:58:08;;;;;;;13.68;5.57;;;;;;;4.50;100.00;103404.28;5036005;28;20049;-67
2024/01/27 05:00:56;;;;;;;19.65;6.70;;;;;;;4.47;100.00;103412.66;5020743;28;20045;-69
2024/01/27 05:03:45;;;;;;;16.30;6.32;;;;;;;4.44;100.00;103413.00;5021879;28;20064;-67
2024/01/27 05:06:33;;;;;;;20.50;6.68;;;;;;;4.43;100.00;103408.63;5068488;28;20410;-67
2024/01/27 05:09:21;;;;;;;15.95;5.82;;;;;;;4.45;100.00;103407.47;5056351;28;20064;-68
2024/01/27 05:12:09;;;;;;;13.10;5.78;;;;;;;4.44;100.00;103402.22;5058917;28;20044;-68
2024/01/27 05:14:57;;;;;;;16.95;6.45;;;;;;;4.43;100.00;103405.94;5021193;28;20053;-68
2024/01/27 05:17:45;;;;;;;15.60;6.20;;;;;;;4.41;100.00;103406.09;5046492;28;20045;-68
2024/01/27 05:20:33;;;;;;;15.95;5.55;;;;;;;4.40;100.00;103401.72;5056061;28;20052;-68
2024/01/27 05:23:21;;;;;;;18.75;7.07;;;;;;;4.38;100.00;103398.31;5036568;28;20275;-67
2024/01/27 05:26:10;;;;;;;15.10;5.88;;;;;;;4.38;100.00;103397.47;5020084;28;20042;-65
2024/01/27 05:28:58;;;;;;;23.15;6.90;;;;;;;4.18;100.00;103408.50;5034149;28;20211;-65
2024/01/27 05:31:46;;;;;;;19.00;7.18;;;;;;;4.07;100.00;103406.13;5012638;28;20123;-68
2024/01/27 05:34:34;;;;;;;18.48;7.53;;;;;;;3.95;100.00;103394.75;5055726;28;20041;-66
2024/01/27 05:37:23;;;;;;;19.52;7.28;;;;;;;3.96;100.00;103395.59;5026197;28;20132;-68
2024/01/27 05:40:11;;;;;;;17.75;6.35;;;;;;;4.00;100.00;103395.09;5040295;28;20131;-67
2024/01/27 05:42:59;;;;;;;16.92;6.53;;;;;;;4.04;100.00;103390.22;5037952;28;20049;-67
2024/01/27 05:45:47;;;;;;;17.80;6.22;;;;;;;4.05;100.00;103383.84;5039437;28;20049;-66
2024/01/27 05:48:35;;;;;;;19.52;6.93;;;;;;;4.06;100.00;103382.81;5053962;28;20056;-67
2024/01/27 05:51:23;;;;;;;18.83;7.07;;;;;;;4.07;100.00;103381.84;5053479;28;20128;-68
2024/01/27 05:54:14;;;;;;;19.38;6.40;;;;;;;4.07;100.00;103372.91;5040410;28;20369;-67
2024/01/27 05:57:03;;;;;;;19.10;6.90;;;;;;;4.09;100.00;103384.34;5033780;28;20061;-68
2024/01/27 05:59:51;;;;;;;19.63;7.20;;;;;;;4.08;100.00;103385.38;5035036;28;20063;-69
2024/01/27 06:02:39;;;;;;;16.92;6.72;;;;;;;4.06;100.00;103382.81;5038623;28;20127;-67
2024/01/27 06:05:28;;;;;;;20.27;7.10;;;;;;;4.07;100.00;103379.13;5054005;28;20061;-67
2024/01/27 06:08:18;;;;;;;17.38;6.07;;;;;;;4.08;100.00;103391.59;5066512;28;20143;-67
2024/01/27 06:11:06;;;;;;;15.70;5.88;;;;;;;4.04;100.00;103395.63;5049166;28;20120;-68
2024/01/27 06:13:58;;;;;;;15.05;5.60;;;;;;;4.03;100.00;103388.53;5013456;28;20059;-67
2024/01/27 06:16:46;;;;;;;13.07;5.35;;;;;;;4.04;100.00;103384.81;5039855;28;20049;-65
2024/01/27 06:19:34;;;;;;;11.85;4.95;;;;;;;4.06;100.00;103385.50;5054336;28;20151;-65
2024/01/27 06:22:22;;;;;;;16.27;5.90;;;;;;;4.05;100.00;103386.53;5037461;28;20068;-67
2024/01/27 06:25:13;;;;;;;17.73;6.25;;;;;;;4.05;100.00;103386.53;5055515;28;20045;-68
2024/01/27 06:28:01;;;;;;;20.88;6.45;;;;;;;4.06;100.00;103393.59;5026596;28;20056;-67
2024/01/27 06:30:49;;;;;;;17.23;6.15;;;;;;;4.06;100.00;103404.41;5069659;28;20071;-65
2024/01/27 06:33:37;;;;;;;12.73;5.45;;;;;;;4.07;100.00;103403.41;5056049;28;20076;-64
2024/01/27 06:36:27;;;;;;;19.50;6.05;;;;;;;4.07;100.00;103395.31;5036344;28;20037;-67
2024/01/27 06:39:15;;;;;;;12.77;5.55;;;;;;;4.04;100.00;103395.63;5060080;28;20048;-62
2024/01/27 06:42:03;;;;;;;17.58;6.00;;;;;;;4.04;100.00;103392.91;5070930;28;20049;-61
2024/01/27 06:44:51;;;;;;;16.25;5.85;;;;;;;4.03;100.00;103396.63;5070493;28;20041;-64
2024/01/27 06:47:39;;;;;;;14.60;6.05;;;;;;;4.02;100.00;103394.97;5043720;28;20048;-68
2024/01/27 06:50:27;;;;;;;17.73;5.47;;;;;;;4.01;100.00;103399.47;5055232;28;20045;-68
2024/01/27 06:53:15;;;;;;;15.40;5.78;;;;;;;4.01;100.00;103395.94;5052195;28;20084;-67
2024/01/27 06:56:03;;;;;;;12.88;5.43;;;;;;;3.99;100.00;103398.81;5054614;28;20131;-66
2024/01/27 06:58:51;;;;;;;16.67;5.80;;;;;;;4.00;100.00;103396.97;5071509;28;20048;-66
2024/01/27 07:01:48;;;;;;;18.25;6.65;;;;;;;4.01;100.00;103398.66;5072234;28;20068;-68
2024/01/27 07:04:36;;;;;;;18.35;6.20;;;;;;;3.98;100.00;103402.50;5048024;28;20405;-67
2024/01/27 07:07:28;;;;;;;17.30;6.55;;;;;;;3.96;100.00;103415.31;5037405;28;20095;-67
2024/01/27 07:10:16;;;;;;;19.63;6.57;;;;;;;3.93;100.00;103420.19;5049902;28;20500;-67
2024/01/27 07:13:06;;;;;;;18.10;6.90;;;;;;;3.91;100.00;103422.19;5073230;28;20129;-69
2024/01/27 07:15:54;;;;;;;18.80;6.80;;;;;;;3.88;100.00;103438.72;5042158;28;20124;-67
2024/01/27 07:18:42;;;;;;;14.60;6.00;;;;;;;3.84;100.00;103432.78;5052249;28;20052;-68
2024/01/27 07:21:31;;;;;;;17.40;6.30;;;;;;;3.84;100.00;103443.56;5038698;28;20076;-66
2024/01/27 07:24:19;;;;;;;18.52;6.47;;;;;;;3.81;100.00;103450.13;5035813;28;20110;-68
2024/01/27 07:27:09;;;;;;;19.75;6.03;;;;;;;3.83;100.00;103442.72;5037992;28;20049;-67
2024/01/27 07:29:57;;;;;;;17.33;6.53;;;;;;;3.79;100.00;103448.59;5053557;28;20049;-68
2024/01/27 07:32:45;;;;;;;16.55;6.22;;;;;;;3.77;100.00;103448.72;5039159;28;20413;-67
2024/01/27 07:35:34;;;;;;;16.52;6.05;;;;;;;3.77;100.00;103439.78;5010793;28;20045;-67
2024/01/27 07:38:22;;;;;;;15.20;6.43;;;;;;;3.79;100.00;103445.88;5052465;28;20100;-66
2024/01/27 07:41:10;;;;;;;14.13;5.85;;;;;;;3.79;100.00;103453.97;5038972;28;20041;-67
2024/01/27 07:43:58;;;;;;;15.30;6.60;;;;;;;3.78;100.00;103461.22;5039365;28;20095;-67
2024/01/27 07:46:46;;;;;;;21.98;7.57;;;;;;;3.74;100.00;103464.38;5040233;28;20064;-66
2024/01/27 07:49:34;;;;;;;17.80;7.72;;;;;;;3.63;100.00;103465.47;5053984;28;20049;-67
2024/01/27 07:52:23;;;;;;;26.48;9.10;;;;;;;3.60;100.00;103457.72;5053708;28;20084;-66
2024/01/27 07:55:11;;;;;;;22.60;7.75;;;;;;;3.64;100.00;103459.09;5052137;28;20162;-67
2024/01/27 07:57:59;;;;;;;18.25;6.82;;;;;;;3.71;100.00;103459.31;5052507;28;20045;-66
2024/01/27 08:00:47;;;;;;;20.42;7.40;;;;;;;3.75;100.00;103461.56;5066573;28;20037;-66
2024/01/27 08:03:35;;;;;;;16.48;7.07;;;;;;;3.76;100.00;103457.84;5034138;28;20045;-67
2024/01/27 08:06:29;;;;;;;25.77;8.20;;;;;;;3.79;100.00;103454.81;5038582;28;20060;-67
2024/01/27 08:09:18;;;;;;;23.85;7.57;;;;;;;3.84;100.00;103457.88;5056668;28;20052;-65
2024/01/27 08:12:07;;;;;;;20.60;7.85;;;;;;;3.87;100.00;103459.41;5043825;28;20132;-66
2024/01/27 08:14:55;;;;;;;21.40;9.00;;;;;;;3.92;100.00;103469.72;5057550;28;20055;-67
2024/01/27 08:17:43;;;;;;;22.52;8.30;;;;;;;3.91;100.00;103462.66;5057674;28;20041;-68
2024/01/27 08:20:31;;;;;;;19.63;6.63;;;;;;;3.90;100.00;103463.66;5052338;28;20049;-67
2024/01/27 08:23:20;;;;;;;21.70;8.15;;;;;;;3.91;100.00;103459.97;5038442;28;20182;-68
2024/01/27 08:26:08;;;;;;;25.80;8.23;;;;;;;3.92;100.00;103462.50;5025130;28;20126;-66
2024/01/27 08:28:56;;;;;;;30.88;10.20;;;;;;;3.95;100.00;103462.19;5036129;28;20048;-66
2024/01/27 08:31:44;;;;;;;23.92;9.55;;;;;;;3.94;100.00;103454.25;5024707;28;20052;-68
2024/01/27 08:34:32;;;;;;;30.10;9.85;;;;;;;3.95;100.00;103454.09;5039988;28;20064;-71
2024/01/27 08:37:20;;;;;;;26.58;10.30;;;;;;;3.97;100.00;103453.91;5051867;28;20060;-67
2024/01/27 08:40:09;;;;;;;18.10;7.43;;;;;;;3.97;100.00;103454.78;5043650;28;20044;-68
2024/01/27 08:42:57;;;;;;;19.88;7.75;;;;;;;3.94;100.00;103462.34;5038428;28;20073;-68
2024/01/27 08:45:45;;;;;;;17.08;7.40;;;;;;;3.94;100.00;103454.25;5038152;28;20101;-68
2024/01/27 08:48:33;;;;;;;16.65;7.30;;;;;;;3.95;100.00;103456.78;5033741;28;20049;-68
2024/01/27 08:51:21;;;;;;;17.17;7.40;;;;;;;3.99;100.00;103462.69;5031348;28;20045;-68
2024/01/27 08:54:09;;;;;;;20.00;7.82;;;;;;;4.01;100.00;103452.59;5052861;28;20052;-68
2024/01/27 08:56:57;;;;;;;19.80;7.60;;;;;;;4.03;100.00;103455.97;5023417;28;20049;-68
2024/01/27 08:59:46;;;;;;;20.60;7.97;;;;;;;4.02;100.00;103454.31;5026055;28;20037;-68
2024/01/27 09:02:34;;;;;;;20.75;7.90;;;;;;;4.02;100.00;103465.09;5047027;28;20049;-69
2024/01/27 09:05:22;;;;;;;25.40;9.05;;;;;;;4.04;100.00;103461.22;5059728;28;20072;-67
2024/01/27 09:08:10;;;;;;;26.67;9.63;;;;;;;4.06;100.00;103466.44;5038984;28;20109;-68
2024/01/27 09:10:58;;;;;;;19.58;8.68;;;;;;;4.07;100.00;103467.31;5039564;28;20076;-68
2024/01/27 09:13:48;;;;;;;22.38;8.93;;;;;;;4.08;100.00;103467.13;5042110;28;20131;-68
2024/01/27 09:16:36;;;;;;;26.02;8.60;;;;;;;4.11;100.00;103466.81;5055249;28;20053;-69
2024/01/27 09:19:24;;;;;;;20.02;8.88;;;;;;;4.13;100.00;103483.69;5052716;28;20103;-67
2024/01/27 09:22:13;;;;;;;18.85;7.70;;;;;;;4.15;100.00;103483.53;5056249;28;20052;-67
2024/01/27 09:25:01;;;;;;;19.05;7.38;;;;;;;4.16;100.00;103488.78;5042688;28;20080;-67
2024/01/27 09:27:49;;;;;;;19.00;8.57;;;;;;;4.20;100.00;103484.75;5064317;28;20485;-67
2024/01/27 09:30:37;;;;;;;24.90;9.07;;;;;;;4.19;100.00;103493.03;5056206;28;20490;-67
2024/01/27 09:33:27;;;;;;;19.33;8.35;;;;;;;4.19;100.00;103496.56;5013791;28;20041;-67
2024/01/27 09:36:15;;;;;;;18.83;7.72;;;;;;;4.21;100.00;103501.78;5050939;28;20108;-67
2024/01/27 09:39:03;;;;;;;21.83;7.90;;;;;;;4.22;100.00;103496.22;5048375;28;20052;-67
2024/01/27 09:41:52;;;;;;;16.17;7.20;;;;;;;4.24;100.00;103499.63;5056535;28;20509;-67
2024/01/27 09:44:41;;;;;;;19.27;7.90;;;;;;;4.27;100.00;103509.25;5044166;28;20091;-67
2024/01/27 09:47:29;;;;;;;20.83;8.50;;;;;;;4.30;100.00;103514.31;5026761;28;20405;-67
2024/01/27 09:50:18;;;;;;;16.88;7.50;;;;;;;4.30;100.00;103511.63;5042629;28;20051;-67
2024/01/27 09:53:08;;;;;;;19.60;8.05;;;;;;;4.32;100.00;103516.88;5020716;28;20045;-67
2024/01/27 09:55:59;;;;;;;20.33;8.40;;;;;;;4.35;100.00;103527.34;5019853;28;20067;-68
2024/01/27 09:58:49;;;;;;;21.45;8.77;;;;;;;4.36;100.00;103523.66;5039847;28;20390;-69
2024/01/27 10:01:37;;;;;;;19.50;7.80;;;;;;;4.39;100.00;103534.13;5020146;28;20053;-66
2024/01/27 10:04:26;;;;;;;17.40;7.95;;;;;;;4.37;100.00;103530.72;5024843;28;20048;-67
2024/01/27 10:07:14;;;;;;;24.35;7.57;;;;;;;4.36;100.00;103529.88;5041254;28;20144;-69
2024/01/27 10:10:02;;;;;;;23.55;8.68;;;;;;;4.37;100.00;103536.13;5012580;28;20183;-68
2024/01/27 10:12:58;;;;;;;25.02;9.27;;;;;;;4.36;100.00;103532.59;5064196;28;20063;-67
2024/01/27 10:15:46;;;;;;;22.38;8.48;;;;;;;4.37;100.00;103531.56;5061160;28;20076;-70
2024/01/27 10:18:35;;;;;;;25.33;7.32;;;;;;;4.38;100.00;103533.28;5065381;28;20135;-68
2024/01/27 10:21:26;;;;;;;20.15;7.75;;;;;;;4.46;100.00;103535.19;5039910;28;20115;-68
2024/01/27 10:24:14;;;;;;;20.58;7.57;;;;;;;4.55;100.00;103512.63;5026734;28;20044;-68
2024/01/27 10:27:03;;;;;;;19.58;8.57;;;;;;;4.59;100.00;103524.75;5040229;28;20067;-68
2024/01/27 10:29:55;;;;;;;21.38;7.53;;;;;;;4.59;100.00;103519.38;5039148;28;20044;-68
2024/01/27 10:32:43;;;;;;;21.80;7.32;;;;;;;4.63;100.00;103530.69;5041152;28;20063;-67
2024/01/27 10:35:31;;;;;;;20.55;7.50;;;;;;;4.65;100.00;103532.22;5040624;28;20057;-68
2024/01/27 10:38:19;;;;;;;18.88;7.82;;;;;;;4.73;100.00;103539.53;5055420;28;20159;-68
2024/01/27 10:41:10;;;;;;;21.08;8.00;;;;;;;4.77;100.00;103542.75;5054797;28;20045;-68
2024/01/27 10:43:59;;;;;;;19.80;6.97;;;;;;;4.82;100.00;103533.16;5042125;28;20045;-68
2024/01/27 10:46:48;;;;;;;19.15;6.90;;;;;;;4.90;100.00;103540.44;5032222;28;20044;-66
2024/01/27 10:49:38;;;;;;;17.63;6.43;;;;;;;5.05;100.00;103529.84;5068520;28;20045;-65
2024/01/27 10:52:32;;;;;;;18.80;6.53;;;;;;;5.01;100.00;103529.34;5031751;28;20064;-65
2024/01/27 10:55:20;;;;;;;16.17;6.55;;;;;;;4.99;100.00;103531.34;5051473;28;20045;-66
2024/01/27 10:58:09;;;;;;;23.13;6.78;;;;;;;5.05;100.00;103529.84;5056875;28;20037;-65
2024/01/27 11:00:57;;;;;;;18.83;6.45;;;;;;;5.08;100.00;103529.53;5048537;28;20045;-65
2024/01/27 11:03:45;;;;;;;21.17;7.00;;;;;;;5.09;100.00;103523.09;5049076;28;20041;-67
2024/01/27 11:06:34;;;;;;;21.08;6.95;;;;;;;5.11;100.00;103513.81;5054526;28;20132;-67
2024/01/27 11:09:23;;;;;;;17.55;6.43;;;;;;;5.23;100.00;103510.81;5040074;28;20056;-65
2024/01/27 11:12:12;;;;;;;22.20;7.30;;;;;;;5.22;100.00;103511.81;5037610;28;20509;-66
2024/01/27 11:15:00;;;;;;;20.58;6.70;;;;;;;5.19;100.00;103507.59;5026639;28;20414;-67
2024/01/27 11:17:49;;;;;;;17.75;6.40;;;;;;;5.21;100.00;103502.88;5038813;28;20091;-67
2024/01/27 11:20:37;;;;;;;16.73;6.22;;;;;;;5.33;100.00;103508.78;5051812;28;20052;-68
2024/01/27 11:23:34;;;;;;;15.05;5.80;;;;;;;5.33;100.00;103506.09;5047605;28;20053;-67
2024/01/27 11:26:22;;;;;;;20.17;6.70;;;;;;;5.32;100.00;103496.31;5044289;28;20049;-67
2024/01/27 11:29:19;;;;;;;20.35;6.32;;;;;;;5.34;100.00;103497.00;5073972;28;20045;-67
2024/01/27 11:32:08;;;;;;;17.65;6.47;;;;;;;5.36;100.00;103507.63;5035644;28;20037;-67
2024/01/27 11:35:02;;;;;;;18.67;6.20;;;;;;;5.39;100.00;103500.03;5021523;28;20052;-67
2024/01/27 11:37:51;;;;;;;18.58;6.43;;;;;;;5.50;100.00;103496.97;5054025;28;20052;-67
2024/01/27 11:40:46;;;;;;;21.70;6.78;;;;;;;5.48;100.00;103495.47;5025943;28;20091;-67
2024/01/27 11:43:34;;;;;;;20.65;7.07;;;;;;;5.48;100.00;103499.03;5036950;28;20048;-66
2024/01/27 11:46:23;;;;;;;21.15;6.40;;;;;;;5.55;100.00;103493.78;5039519;28;20045;-67
2024/01/27 11:49:16;;;;;;;19.33;6.22;;;;;;;5.53;100.00;103491.25;5053047;28;20131;-66
2024/01/27 11:52:06;;;;;;;18.27;6.88;;;;;;;5.55;100.00;103483.78;5024769;28;20060;-67
2024/01/27 11:54:58;;;;;;;16.98;6.30;;;;;;;5.78;100.00;103487.69;5038239;28;20072;-65
2024/01/27 11:57:46;;;;;;;19.27;6.35;;;;;;;5.75;100.00;103478.91;5051435;28;20056;-66
2024/01/27 12:00:34;;;;;;;18.02;6.20;;;;;;;5.73;100.00;103475.53;5037702;28;20037;-67
2024/01/27 12:03:23;;;;;;;21.98;6.28;;;;;;;5.71;100.00;103474.00;5046442;28;20071;-66
2024/01/27 12:06:11;;;;;;;19.33;6.68;;;;;;;5.70;100.00;103469.59;5037528;28;20040;-65
2024/01/27 12:09:02;;;;;;;18.42;6.70;;;;;;;5.70;100.00;103469.59;5038231;28;20063;-67
2024/01/27 12:11:50;;;;;;;21.73;6.70;;;;;;;5.71;100.00;103474.84;5027722;28;20695;-65
2024/01/27 12:14:40;;;;;;;19.73;7.60;;;;;;;5.72;100.00;103476.56;5071585;28;20075;-67
2024/01/27 12:17:29;;;;;;;17.38;6.03;;;;;;;5.75;100.00;103478.91;5050612;28;20135;-67
2024/01/27 12:20:17;;;;;;;17.77;5.72;;;;;;;5.78;100.00;103476.88;5052227;28;20056;-66
2024/01/27 12:23:09;;;;;;;20.60;6.22;;;;;;;5.79;100.00;103490.22;5026408;28;20049;-66
2024/01/27 12:25:57;;;;;;;18.58;5.78;;;;;;;5.79;100.00;103484.81;5053078;28;20126;-67
2024/01/27 12:28:48;;;;;;;16.65;5.82;;;;;;;5.83;100.00;103469.09;5024885;28;20077;-65
2024/01/27 12:31:36;;;;;;;18.75;5.68;;;;;;;5.84;100.00;103468.91;5035230;28;20041;-66
2024/01/27 12:34:24;;;;;;;13.98;4.97;;;;;;;5.91;100.00;103469.91;5039437;28;20061;-66
2024/01/27 12:37:13;;;;;;;19.85;6.28;;;;;;;6.03;100.00;103465.00;5038027;28;20064;-66
2024/01/27 12:40:01;;;;;;;22.42;5.95;;;;;;;6.03;100.00;103478.56;5052054;28;20045;-66
2024/01/27 12:42:49;;;;;;;13.65;5.18;;;;;;;6.04;100.00;103471.28;5063709;28;20175;-66
2024/01/27 12:45:39;;;;;;;20.42;7.05;;;;;;;6.05;100.00;103483.81;5033837;28;20097;-67
2024/01/27 12:48:30;;;;;;;19.35;6.10;;;;;;;6.03;100.00;103480.41;5042657;28;20065;-67
2024/01/27 12:51:19;;;;;;;15.93;5.57;;;;;;;6.19;100.00;103464.97;5068393;28;20064;-66
2024/01/27 12:54:08;;;;;;;21.45;6.10;;;;;;;6.26;100.00;103470.56;5029533;28;20045;-66